createdAt,value
2019-05-09T00:01:14.221Z,3.77
2019-05-09T00:04:17.865Z,3.23
2019-05-09T00:07:23.281Z,3.55
2019-05-09T00:10:38.503Z,3.33
2019-05-09T00:13:34.239Z,3.60
2019-05-09T00:16:38.011Z,3.80
2019-05-09T00:19:43.841Z,3.63
2019-05-09T00:22:47.308Z,3.97
2019-05-09T00:25:51.178Z,4.30
2019-05-09T00:28:58.792Z,4.05
2019-05-09T00:32:13.670Z,3.60
2019-05-09T00:35:23.515Z,3.70
2019-05-09T00:38:35.654Z,3.90
2019-05-09T00:41:39.305Z,3.50
2019-05-09T00:44:45.434Z,3.45
2019-05-09T00:47:49.414Z,3.27
2019-05-09T00:50:54.429Z,3.50
2019-05-09T00:53:58.185Z,3.53
2019-05-09T00:57:03.193Z,3.40
2019-05-09T01:00:14.524Z,3.73
2019-05-09T01:03:17.967Z,3.87
2019-05-09T03:19:02.651Z,4.10
2019-05-09T03:22:12.021Z,3.70
2019-05-09T03:25:18.906Z,4.10
2019-05-09T03:28:40.327Z,3.70
2019-05-09T03:31:44.819Z,3.62
2019-05-09T03:34:48.697Z,3.70
2019-05-09T03:38:07.838Z,4.37
2019-05-09T03:41:10.672Z,3.90
2019-05-09T03:44:14.382Z,3.70
2019-05-09T03:47:37.667Z,4.33
2019-05-09T03:50:41.570Z,4.10
2019-05-09T03:53:45.475Z,4.27
2019-05-09T03:56:54.381Z,4.10
2019-05-09T03:59:58.063Z,4.00
2019-05-09T04:03:01.766Z,4.10
2019-05-09T04:06:08.015Z,4.10
2019-05-09T04:09:11.123Z,4.00
2019-05-09T04:12:15.014Z,4.33
2019-05-09T04:15:19.206Z,4.20
2019-05-09T04:18:22.959Z,4.27
2019-05-09T04:21:27.975Z,4.07
2019-05-09T04:24:32.189Z,3.90
2019-05-09T04:27:37.435Z,4.20
2019-05-09T04:30:41.246Z,4.00
2019-05-09T04:33:47.223Z,4.03
2019-05-09T04:36:50.326Z,4.30
2019-05-09T04:39:58.823Z,4.28
2019-05-09T04:43:11.366Z,4.37
2019-05-09T04:46:05.147Z,4.60
2019-05-09T04:49:08.900Z,4.57
2019-05-09T04:52:12.587Z,5.12
2019-05-09T04:55:18.243Z,4.47
2019-05-09T04:58:22.221Z,4.43
2019-05-09T05:01:32.649Z,4.35
2019-05-09T05:04:37.396Z,4.80
2019-05-09T05:07:41.188Z,4.77
2019-05-09T05:10:45.106Z,4.50
2019-05-09T05:13:48.869Z,4.77
2019-05-09T05:17:03.257Z,4.43
2019-05-09T05:20:01.677Z,4.43
2019-05-09T05:23:12.405Z,4.47
2019-05-09T05:26:18.326Z,4.50
2019-05-09T05:29:22.223Z,5.00
2019-05-09T05:32:31.906Z,4.67
2019-05-09T05:35:48.746Z,4.40
2019-05-09T05:38:52.481Z,4.85
2019-05-09T05:41:57.645Z,4.63
2019-05-09T05:45:01.534Z,4.83
2019-05-09T05:48:10.530Z,5.27
2019-05-09T05:51:14.223Z,5.30
2019-05-09T05:54:19.400Z,5.23
2019-05-09T05:57:23.334Z,5.00
2019-05-09T06:00:44.369Z,5.20
2019-05-09T06:03:48.245Z,5.07
2019-05-09T06:06:52.025Z,5.20
2019-05-09T06:09:57.603Z,5.47
2019-05-09T06:13:01.194Z,5.10
2019-05-09T06:16:04.880Z,5.40
2019-05-09T06:19:09.076Z,5.10
2019-05-09T06:22:12.834Z,4.80
2019-05-09T06:25:20.732Z,5.00
2019-05-09T06:28:22.020Z,5.40
2019-05-09T06:31:28.308Z,4.87
2019-05-09T06:34:31.339Z,5.03
2019-05-09T06:37:35.021Z,4.90
2019-05-09T06:40:38.966Z,4.20
2019-05-09T06:43:44.561Z,3.97
2019-05-09T06:46:53.454Z,3.67
2019-05-09T06:49:57.979Z,3.53
2019-05-09T06:53:01.713Z,3.63
2019-05-09T06:56:07.422Z,3.60
2019-05-09T06:59:11.360Z,4.00
2019-05-09T07:02:38.820Z,3.70
2019-05-09T07:06:08.328Z,3.47
2019-05-09T07:09:24.391Z,3.93
2019-05-09T07:12:28.099Z,4.00
2019-05-09T07:15:32.225Z,3.47
2019-05-09T07:18:38.145Z,3.40
2019-05-09T07:21:59.196Z,3.37
2019-05-09T07:25:10.891Z,3.50
2019-05-09T07:28:14.068Z,3.07
2019-05-09T07:31:48.024Z,3.07
2019-05-09T07:34:57.907Z,3.10
2019-05-09T07:38:01.909Z,3.17
2019-05-09T07:41:05.721Z,2.90
2019-05-09T07:44:09.493Z,2.80
2019-05-09T07:47:13.971Z,3.00
2019-05-09T07:50:19.056Z,3.10
2019-05-09T07:53:23.803Z,2.90
2019-05-09T07:56:28.461Z,2.90
2019-05-09T07:59:32.846Z,2.90
2019-05-09T08:02:38.679Z,3.10
2019-05-09T08:05:41.969Z,2.67
2019-05-09T08:08:47.646Z,3.10
2019-05-09T08:11:51.118Z,2.90
2019-05-09T08:15:07.567Z,2.90
2019-05-09T08:18:00.230Z,2.80
2019-05-09T08:21:03.946Z,2.53
2019-05-09T08:24:08.339Z,3.13
2019-05-09T08:27:12.178Z,3.10
2019-05-09T08:30:18.019Z,2.90
2019-05-09T08:33:22.151Z,3.00
2019-05-09T08:36:27.998Z,2.90
2019-05-09T08:39:31.297Z,3.20
2019-05-09T08:42:37.153Z,3.00
2019-05-09T08:45:40.730Z,3.12
2019-05-09T08:48:44.851Z,3.00
2019-05-09T08:52:09.053Z,3.17
2019-05-09T08:55:00.106Z,2.90
2019-05-09T08:58:03.799Z,3.00
2019-05-09T09:01:09.867Z,3.08
2019-05-09T09:04:13.081Z,3.00
2019-05-09T09:07:18.987Z,3.33
2019-05-09T09:10:22.198Z,3.10
2019-05-09T09:13:28.359Z,3.50
2019-05-09T09:16:32.194Z,3.33
2019-05-09T09:19:38.363Z,2.90
2019-05-09T09:22:41.354Z,2.90
2019-05-09T09:25:45.000Z,3.10
2019-05-09T09:28:48.967Z,2.70
2019-05-09T09:31:52.674Z,2.90
2019-05-09T09:34:58.752Z,3.37
2019-05-09T09:38:02.523Z,3.97
2019-05-09T09:41:07.801Z,3.30
2019-05-09T09:44:12.198Z,3.53
2019-05-09T09:47:20.603Z,3.63
2019-05-09T09:50:21.391Z,3.17
2019-05-09T09:53:27.707Z,2.80
2019-05-09T09:56:30.665Z,2.97
2019-05-09T09:59:50.204Z,3.53
2019-05-09T10:02:55.090Z,3.60
2019-05-09T10:05:58.801Z,4.33
2019-05-09T10:09:02.500Z,3.33
2019-05-09T10:12:08.860Z,3.50
2019-05-09T10:15:22.435Z,3.13
2019-05-09T10:18:34.329Z,3.20
2019-05-09T10:21:42.360Z,3.40
2019-05-09T10:24:47.908Z,3.73
2019-05-09T10:27:51.963Z,3.10
2019-05-09T10:30:57.755Z,2.93
2019-05-09T10:34:01.483Z,3.12
2019-05-09T10:37:07.543Z,2.80
2019-05-09T10:40:14.689Z,3.07
2019-05-09T10:43:39.438Z,3.20
2019-05-09T10:46:57.230Z,3.10
2019-05-09T10:49:58.224Z,2.93
2019-05-09T10:53:02.051Z,3.10
2019-05-09T10:56:08.641Z,3.33
2019-05-09T10:59:11.550Z,2.50
2019-05-09T11:02:17.386Z,2.50
2019-05-09T11:05:20.663Z,2.90
2019-05-09T11:08:24.367Z,3.10
2019-05-09T11:11:28.673Z,2.90
2019-05-09T11:14:37.253Z,2.87
2019-05-09T11:17:39.003Z,2.50
2019-05-09T11:20:42.813Z,2.70
2019-05-09T11:23:48.841Z,3.43
2019-05-09T11:26:52.455Z,3.50
2019-05-09T11:29:57.834Z,2.97
2019-05-09T11:33:01.935Z,3.17
2019-05-09T11:36:09.466Z,3.60
2019-05-09T11:39:11.149Z,3.30
2019-05-09T11:42:14.899Z,3.47
2019-05-09T11:45:18.576Z,3.40
2019-05-09T11:48:22.253Z,3.70
2019-05-09T11:51:28.686Z,3.10
2019-05-09T11:54:31.370Z,2.35
2019-05-09T11:57:35.239Z,2.30
2019-05-09T12:00:38.959Z,2.30
2019-05-09T12:03:42.645Z,1.60
2019-05-09T12:06:49.109Z,1.87
2019-05-09T12:09:51.958Z,2.10
2019-05-09T12:12:57.596Z,1.67
2019-05-09T12:16:01.151Z,2.23
2019-05-09T12:19:05.224Z,2.03
2019-05-09T12:22:09.162Z,2.50
2019-05-09T12:25:13.024Z,2.73
2019-05-09T12:28:18.973Z,1.93
2019-05-09T12:31:22.350Z,2.47
2019-05-09T12:34:27.663Z,2.17
2019-05-09T12:37:31.705Z,2.43
2019-05-09T12:40:35.517Z,2.37
2019-05-09T12:43:39.174Z,2.40
2019-05-09T12:46:43.164Z,2.37
2019-05-09T12:49:48.818Z,2.57
2019-05-09T12:52:52.836Z,2.93
2019-05-09T12:56:02.643Z,2.80
2019-05-09T12:59:08.505Z,2.70
2019-05-09T13:02:11.950Z,2.70
2019-05-09T13:05:17.925Z,3.10
2019-05-09T13:08:21.119Z,2.60
2019-05-09T13:11:24.930Z,2.60
2019-05-09T13:14:28.822Z,3.20
2019-05-09T13:17:34.418Z,2.77
2019-05-09T13:20:38.332Z,3.20
2019-05-09T13:23:42.133Z,2.87
2019-05-09T13:26:48.100Z,2.70
2019-05-09T13:29:51.951Z,3.07
2019-05-09T13:32:55.618Z,3.40
2019-05-09T13:35:59.364Z,3.50
2019-05-09T13:39:05.160Z,3.20
2019-05-09T13:42:09.383Z,3.50
2019-05-09T13:45:13.218Z,3.17
2019-05-09T13:48:30.354Z,2.77
2019-05-09T13:51:23.001Z,2.70
2019-05-09T13:54:28.571Z,2.63
2019-05-09T13:57:32.410Z,2.60
2019-05-09T14:00:38.874Z,2.40
2019-05-09T14:03:41.835Z,3.20
2019-05-09T14:06:48.501Z,3.50
2019-05-09T14:09:51.987Z,4.27
2019-05-09T14:13:08.996Z,2.73
2019-05-09T14:16:15.483Z,2.53
2019-05-09T14:19:26.314Z,2.60
2019-05-09T14:22:12.109Z,3.00
2019-05-09T14:25:19.195Z,3.13
2019-05-09T14:28:21.466Z,3.07
2019-05-09T14:31:28.884Z,3.12
2019-05-09T14:34:32.071Z,2.67
2019-05-09T14:37:35.894Z,2.37
2019-05-09T14:40:39.593Z,2.87
2019-05-09T14:43:43.481Z,2.27
2019-05-09T14:46:48.180Z,2.50
2019-05-09T14:49:52.095Z,2.33
2019-05-09T14:52:58.274Z,2.63
2019-05-09T14:56:01.958Z,2.40
2019-05-09T14:59:06.274Z,2.50
2019-05-09T15:02:10.082Z,2.40
2019-05-09T15:05:13.927Z,2.30
2019-05-09T15:08:18.185Z,2.20
2019-05-09T15:11:21.954Z,2.20
2019-05-09T15:14:25.662Z,2.20
2019-05-09T15:17:29.338Z,4.13
2019-05-09T15:20:33.089Z,2.37
2019-05-09T15:23:39.057Z,2.37
2019-05-09T15:26:42.514Z,2.50
2019-05-09T15:29:48.474Z,2.30
2019-05-09T15:32:52.061Z,1.77
2019-05-09T15:35:58.709Z,1.90
2019-05-09T15:39:01.394Z,2.27
2019-05-09T15:42:07.332Z,2.30
2019-05-09T15:45:11.507Z,2.17
2019-05-09T15:48:15.211Z,2.50
2019-05-09T15:51:19.089Z,2.33
2019-05-09T15:54:22.820Z,2.13
2019-05-09T15:57:27.515Z,2.10
2019-05-09T16:00:31.544Z,2.00
2019-05-09T16:03:35.303Z,2.07
2019-05-09T16:06:39.366Z,1.73
2019-05-09T16:09:43.663Z,1.63
2019-05-09T16:12:48.646Z,2.30
2019-05-09T16:15:52.733Z,1.93
2019-05-09T16:18:58.310Z,2.23
2019-05-09T16:22:02.191Z,2.20
2019-05-09T16:25:06.358Z,2.30
2019-05-09T16:28:10.126Z,1.97
2019-05-09T16:31:13.968Z,2.37
2019-05-09T16:34:18.112Z,2.30
2019-05-09T16:37:21.878Z,2.40
2019-05-09T16:40:27.828Z,2.00
2019-05-09T16:43:30.982Z,2.10
2019-05-09T16:46:34.645Z,2.60
2019-05-09T16:49:38.849Z,2.80
2019-05-09T16:52:43.466Z,2.60
2019-05-09T16:55:47.884Z,3.17
2019-05-09T16:58:51.998Z,2.87
2019-05-09T17:01:57.843Z,2.93
2019-05-09T17:05:01.281Z,3.00
2019-05-09T17:08:05.036Z,2.93
2019-05-09T17:11:08.786Z,3.20
2019-05-09T17:14:12.578Z,2.87
2019-05-09T17:17:17.861Z,3.00
2019-05-09T17:20:25.161Z,2.40
2019-05-09T17:23:29.937Z,2.80
2019-05-09T17:26:33.577Z,2.73
2019-05-09T17:29:38.303Z,3.10
2019-05-09T17:32:42.342Z,3.03
2019-05-09T17:35:48.188Z,3.63
2019-05-09T17:38:51.492Z,3.58
2019-05-09T17:41:55.227Z,3.17
2019-05-09T17:44:59.154Z,3.20
2019-05-09T17:48:03.060Z,3.47
2019-05-09T17:51:08.459Z,3.53
2019-05-09T17:54:12.587Z,3.77
2019-05-09T17:57:18.601Z,3.90
2019-05-09T18:00:24.307Z,4.17
2019-05-09T18:03:29.082Z,3.70
2019-05-09T18:06:33.217Z,3.70
2019-05-09T18:09:37.195Z,4.17
2019-05-09T18:12:40.901Z,3.50
2019-05-09T18:15:44.850Z,3.87
2019-05-09T18:18:49.251Z,3.90
2019-05-09T18:21:53.014Z,4.80
2019-05-09T18:24:57.685Z,3.90
2019-05-09T18:28:01.622Z,4.53
2019-05-09T18:31:05.323Z,3.63
2019-05-09T18:34:09.037Z,4.17
2019-05-09T18:37:12.733Z,3.80
2019-05-09T18:40:17.958Z,4.00
2019-05-09T18:43:21.865Z,3.83
2019-05-09T18:46:27.907Z,3.73
2019-05-09T18:49:31.173Z,5.03
2019-05-09T18:52:35.270Z,3.90
2019-05-09T18:55:39.333Z,4.17
2019-05-09T18:58:43.096Z,3.73
2019-05-09T19:01:47.103Z,4.12
2019-05-09T19:04:50.866Z,4.10
2019-05-09T19:07:54.780Z,4.10
2019-05-09T19:10:58.731Z,3.87
2019-05-09T19:14:03.236Z,4.08
2019-05-09T19:17:45.069Z,3.87
2019-05-09T19:20:53.345Z,3.60
2019-05-09T19:23:57.845Z,3.58
2019-05-09T19:27:02.085Z,3.70
2019-05-09T19:30:09.114Z,3.77
2019-05-09T19:33:12.854Z,3.67
2019-05-09T19:36:17.534Z,3.60
2019-05-09T19:39:21.351Z,3.97
2019-05-09T19:42:25.121Z,4.30
2019-05-09T19:45:28.858Z,4.05
2019-05-09T19:48:32.548Z,4.23
2019-05-09T19:51:36.505Z,4.30
2019-05-09T19:54:40.233Z,4.90
2019-05-09T19:57:44.238Z,4.70
2019-05-09T20:00:47.909Z,5.23
2019-05-09T20:03:51.618Z,4.90
2019-05-09T20:06:55.310Z,4.73
2019-05-09T20:10:12.614Z,4.90
2019-05-09T20:13:22.721Z,5.33
2019-05-09T20:16:27.276Z,4.70
2019-05-09T20:19:31.051Z,5.13
2019-05-09T20:22:34.717Z,5.13
2019-05-09T20:25:38.646Z,4.63
2019-05-09T20:28:42.416Z,5.07
2019-05-09T20:31:46.419Z,5.13
2019-05-09T20:34:50.125Z,5.20
2019-05-09T20:37:54.034Z,5.13
2019-05-09T20:40:57.953Z,5.50
2019-05-09T20:44:01.905Z,5.17
2019-05-09T20:47:06.273Z,4.87
2019-05-09T20:50:10.554Z,4.70
2019-05-09T20:53:14.454Z,4.70
2019-05-09T20:56:18.358Z,5.77
2019-05-09T20:59:22.273Z,4.87
2019-05-09T21:02:26.130Z,5.50
2019-05-09T21:05:30.126Z,5.40
2019-05-09T21:08:34.075Z,5.47
2019-05-09T21:11:38.222Z,5.90
2019-05-09T21:14:42.551Z,5.03
2019-05-09T21:17:46.662Z,4.73
2019-05-09T21:20:50.554Z,4.90
2019-05-09T21:23:54.675Z,5.03
2019-05-09T21:26:58.546Z,5.07
2019-05-09T21:30:02.530Z,4.93
2019-05-09T21:33:06.430Z,4.77
2019-05-09T21:36:10.102Z,4.87
2019-05-09T21:39:13.804Z,4.90
2019-05-09T21:42:17.461Z,4.80
2019-05-09T21:45:21.177Z,5.13
2019-05-09T21:48:25.166Z,4.93
2019-05-09T21:51:28.829Z,5.03
2019-05-09T21:54:32.601Z,4.87
2019-05-09T21:57:36.518Z,4.93
2019-05-09T22:00:41.510Z,4.87
2019-05-09T22:03:45.478Z,5.35
2019-05-09T22:06:50.105Z,5.30
2019-05-09T22:09:53.781Z,5.00
2019-05-09T22:12:57.534Z,4.70
2019-05-09T22:16:01.542Z,5.70
2019-05-09T22:19:05.387Z,7.87
2019-05-09T22:22:09.366Z,7.50
2019-05-09T22:25:13.968Z,6.20
2019-05-09T22:28:17.914Z,5.43
2019-05-09T22:31:21.554Z,5.00
2019-05-09T22:34:25.522Z,5.30
2019-05-09T22:37:29.294Z,5.30
2019-05-09T22:40:33.950Z,5.40
2019-05-09T22:43:37.618Z,5.73
2019-05-09T22:46:41.343Z,5.90
2019-05-09T22:49:46.174Z,5.20
2019-05-09T22:52:49.845Z,5.20
2019-05-09T22:55:53.552Z,5.13
2019-05-09T22:58:57.537Z,5.30
2019-05-09T23:02:06.562Z,5.03
2019-05-09T23:05:07.311Z,4.73
2019-05-09T23:08:11.044Z,4.77
2019-05-09T23:11:14.942Z,5.03
2019-05-09T23:14:18.657Z,5.70
2019-05-09T23:17:22.436Z,5.60
2019-05-09T23:20:43.691Z,5.03
2019-05-09T23:23:56.846Z,5.57
2019-05-09T23:27:00.514Z,7.37
2019-05-09T23:30:04.650Z,5.90
2019-05-09T23:33:08.565Z,6.17
2019-05-09T23:36:12.523Z,6.10
2019-05-09T23:39:22.999Z,6.55
2019-05-09T23:42:26.678Z,7.17
2019-05-09T23:45:30.400Z,6.60
2019-05-09T23:48:34.282Z,6.60
2019-05-09T23:51:45.226Z,6.40
2019-05-09T23:55:06.858Z,5.80
2019-05-09T23:58:28.106Z,6.17
